Time;durP1;ratioP1;P1;durP2;ratioP2;P2;SDS_P1;SDS_P2;PMS_P1;PMS_P2;Temp;Humidity;BMP_temperature;BMP_pressure;BME280_temperature;BME280_humidity;BME280_pressure;Samples;Min_cycle;Max_cycle;Signal;HPM_P1;HPM_P2
2023/10/17 00:00:39;;;;;;;13.38;11.70;;;9.90;99.90;;;;;;5056875;28;20179;-67
2023/10/17 00:03:06;;;;;;;14.23;12.02;;;10.00;99.90;;;;;;5056889;28;20190;-67
2023/10/17 00:05:32;;;;;;;15.30;12.90;;;9.90;99.90;;;;;;5056777;28;20670;-67
2023/10/17 00:08:00;;;;;;;15.32;13.43;;;9.80;99.90;;;;;;5056656;28;20207;-67
2023/10/17 00:10:31;;;;;;;15.13;13.63;;;9.80;99.90;;;;;;5056688;28;20543;-68
2023/10/17 00:13:08;;;;;;;15.48;13.75;;;9.90;99.90;;;;;;5056835;28;20329;-67
2023/10/17 00:15:37;;;;;;;15.10;13.10;;;9.90;99.90;;;;;;5056650;28;20206;-67
2023/10/17 00:18:11;;;;;;;16.58;12.77;;;9.80;99.90;;;;;;5056519;28;20179;-68
2023/10/17 00:20:37;;;;;;;19.92;13.57;;;9.70;99.90;;;;;;5056671;28;20249;-68
2023/10/17 00:23:07;;;;;;;17.40;13.82;;;9.80;99.90;;;;;;5056583;28;20183;-68
2023/10/17 00:25:33;;;;;;;16.75;14.35;;;9.80;99.90;;;;;;5056494;28;20217;-67
2023/10/17 00:27:59;;;;;;;16.77;14.88;;;9.80;99.90;;;;;;5056322;28;20207;-67
2023/10/17 00:30:29;;;;;;;17.90;15.55;;;9.80;99.90;;;;;;5056254;28;20640;-68
2023/10/17 00:32:55;;;;;;;19.10;15.00;;;9.80;99.90;;;;;;5056534;28;20183;-67
2023/10/17 00:35:25;;;;;;;19.88;13.82;;;9.60;99.90;;;;;;5056443;28;20635;-67
2023/10/17 00:38:04;;;;;;;17.05;14.18;;;9.60;99.90;;;;;;5056289;28;20279;-68
2023/10/17 00:43:14;;;;;;;19.52;14.93;;;9.60;99.90;;;;;;5056408;28;20270;-67
2023/10/17 00:45:41;;;;;;;18.30;14.63;;;9.70;99.90;;;;;;5056213;28;20203;-65
2023/10/17 00:48:18;;;;;;;19.40;15.13;;;9.70;99.90;;;;;;5056182;28;20195;-67
2023/10/17 00:50:50;;;;;;;20.63;15.27;;;9.70;99.90;;;;;;5056041;28;20167;-67
2023/10/17 00:53:16;;;;;;;19.88;15.02;;;9.80;99.90;;;;;;5056021;28;20175;-66
2023/10/17 00:55:51;;;;;;;18.48;14.23;;;9.70;99.90;;;;;;5055272;28;20249;-67
2023/10/17 00:58:21;;;;;;;19.70;14.30;;;9.70;99.90;;;;;;5055864;28;20177;-66
2023/10/17 01:01:09;;;;;;;18.67;14.52;;;9.60;99.90;;;;;;5055956;28;20211;-67
2023/10/17 01:03:44;;;;;;;18.83;14.90;;;9.70;99.90;;;;;;5055847;28;20262;-67
2023/10/17 01:08:56;;;;;;;17.90;13.93;;;9.70;99.90;;;;;;5055820;28;20651;-67
2023/10/17 01:11:26;;;;;;;16.95;13.75;;;9.70;99.90;;;;;;5055693;28;20636;-67
2023/10/17 01:13:54;;;;;;;19.10;14.18;;;9.70;99.90;;;;;;5055569;28;20171;-68
2023/10/17 01:16:21;;;;;;;27.13;15.35;;;9.60;99.90;;;;;;5055442;28;20202;-67
2023/10/17 01:18:47;;;;;;;19.50;14.35;;;9.60;99.90;;;;;;5055695;28;20179;-67
2023/10/17 01:21:20;;;;;;;17.92;13.15;;;9.60;99.90;;;;;;5055447;28;20223;-67
2023/10/17 01:23:49;;;;;;;17.92;14.45;;;9.70;99.90;;;;;;5055485;28;20171;-67
2023/10/17 01:26:26;;;;;;;16.98;13.05;;;9.60;99.90;;;;;;5055289;28;20226;-67
2023/10/17 01:28:53;;;;;;;16.30;13.55;;;9.60;99.90;;;;;;5055254;28;20178;-67
2023/10/17 01:31:22;;;;;;;18.50;13.88;;;9.60;99.90;;;;;;5055418;28;20183;-67
2023/10/17 01:33:54;;;;;;;18.75;13.82;;;9.70;99.90;;;;;;5055275;28;20178;-67
2023/10/17 01:36:20;;;;;;;19.05;14.82;;;9.70;99.90;;;;;;5055251;28;20175;-67
2023/10/17 01:38:49;;;;;;;16.55;13.73;;;9.70;99.90;;;;;;5055188;28;20182;-67
2023/10/17 01:41:20;;;;;;;17.65;12.98;;;9.70;99.90;;;;;;5054982;28;20696;-67
2023/10/17 01:43:50;;;;;;;16.45;14.50;;;9.70;99.90;;;;;;5055250;28;20567;-67
2023/10/17 01:46:28;;;;;;;18.20;13.52;;;9.70;99.90;;;;;;5055005;28;20278;-65
2023/10/17 01:48:55;;;;;;;18.65;15.13;;;9.60;99.90;;;;;;5054961;28;20198;-67
2023/10/17 01:51:24;;;;;;;20.30;14.43;;;9.70;99.90;;;;;;5054841;28;20167;-67
2023/10/17 01:53:51;;;;;;;20.50;13.43;;;9.60;99.90;;;;;;5054708;28;20300;-67
2023/10/17 01:56:25;;;;;;;18.30;13.75;;;9.60;99.90;;;;;;5054965;28;20174;-67
2023/10/17 01:58:51;;;;;;;18.58;14.15;;;9.50;99.90;;;;;;5054901;28;20204;-67
2023/10/17 02:01:24;;;;;;;19.50;12.38;;;9.50;99.90;;;;;;5054693;28;20183;-67
2023/10/17 02:03:52;;;;;;;15.07;12.77;;;9.60;99.90;;;;;;5054638;28;20644;-67
2023/10/17 02:06:17;;;;;;;14.23;12.73;;;9.50;99.90;;;;;;5054482;28;20214;-67
2023/10/17 02:08:46;;;;;;;15.77;13.77;;;9.60;99.90;;;;;;5054311;28;20187;-67
2023/10/17 02:11:30;;;;;;;16.25;12.40;;;9.50;99.90;;;;;;5054687;28;20179;-67
2023/10/17 02:13:57;;;;;;;15.38;12.35;;;9.40;99.90;;;;;;5054531;28;20172;-67
2023/10/17 02:16:29;;;;;;;16.42;12.88;;;9.50;99.90;;;;;;5054384;28;20201;-67
2023/10/17 02:18:55;;;;;;;15.07;12.98;;;9.40;99.90;;;;;;5054237;28;20171;-67
2023/10/17 02:21:21;;;;;;;14.43;12.27;;;9.30;99.90;;;;;;5054542;28;20714;-67
2023/10/17 02:23:51;;;;;;;13.55;12.02;;;9.30;99.90;;;;;;5054419;28;20170;-67
2023/10/17 02:26:25;;;;;;;14.13;12.07;;;9.30;99.90;;;;;;5054118;28;20294;-66
2023/10/17 02:29:11;;;;;;;14.57;12.27;;;9.40;99.90;;;;;;5054305;28;20213;-67
2023/10/17 02:31:37;;;;;;;17.88;11.45;;;9.40;99.90;;;;;;5054375;28;20175;-67
2023/10/17 02:34:03;;;;;;;14.77;11.38;;;9.40;99.90;;;;;;5054196;28;20218;-67
2023/10/17 02:36:29;;;;;;;14.73;11.30;;;9.20;99.90;;;;;;5054131;28;20178;-66
2023/10/17 02:38:55;;;;;;;12.73;11.38;;;9.30;99.90;;;;;;5054105;28;20181;-66
2023/10/17 02:41:22;;;;;;;17.08;11.20;;;9.30;99.90;;;;;;5053949;28;20187;-66
2023/10/17 02:43:55;;;;;;;13.07;11.68;;;9.30;99.90;;;;;;5053821;28;20588;-67
2023/10/17 02:46:27;;;;;;;12.43;11.20;;;9.30;99.90;;;;;;5053986;28;20202;-66
2023/10/17 02:48:57;;;;;;;13.57;12.23;;;9.40;99.90;;;;;;5054061;28;20172;-66
2023/10/17 02:53:57;;;;;;;12.40;11.10;;;9.30;99.90;;;;;;5053763;28;20210;-67
2023/10/17 02:56:23;;;;;;;12.18;10.02;;;9.30;99.90;;;;;;5053574;28;20179;-67
2023/10/17 02:59:04;;;;;;;14.23;10.85;;;9.20;99.90;;;;;;5053802;28;20181;-67
2023/10/17 03:01:31;;;;;;;15.07;10.40;;;9.20;99.90;;;;;;5053707;28;20262;-67
2023/10/17 03:03:58;;;;;;;12.38;9.70;;;9.30;99.90;;;;;;5053657;28;20197;-66
2023/10/17 03:06:24;;;;;;;11.73;9.15;;;9.40;99.90;;;;;;5053441;28;20241;-67
2023/10/17 03:09:00;;;;;;;12.07;9.45;;;9.40;99.90;;;;;;5053427;28;20207;-67
2023/10/17 03:12:19;;;;;;;10.35;9.13;;;9.30;99.90;;;;;;5053608;28;20179;-66
2023/10/17 03:14:22;;;;;;;10.55;9.45;;;9.30;99.90;;;;;;5049354;28;20640;-67
2023/10/17 03:16:54;;;;;;;13.45;8.85;;;9.40;99.90;;;;;;5053523;28;20536;-67
2023/10/17 03:19:25;;;;;;;12.55;8.48;;;9.40;99.90;;;;;;5052551;28;20183;-67
2023/10/17 03:21:53;;;;;;;11.82;8.88;;;9.30;99.90;;;;;;5053430;28;20535;-68
2023/10/17 03:24:19;;;;;;;10.13;9.13;;;9.30;99.90;;;;;;5053401;28;20629;-66
2023/10/17 03:26:55;;;;;;;9.95;8.65;;;9.40;99.90;;;;;;5053267;28;20557;-67
2023/10/17 03:29:23;;;;;;;9.55;8.32;;;9.40;99.90;;;;;;5053278;28;20187;-67
2023/10/17 03:31:58;;;;;;;12.95;8.55;;;9.20;99.90;;;;;;5053006;28;20175;-67
2023/10/17 03:34:35;;;;;;;10.13;8.45;;;9.30;99.90;;;;;;5053009;28;20513;-67
2023/10/17 03:39:52;;;;;;;9.15;8.23;;;9.40;99.90;;;;;;5053368;28;20182;-67
2023/10/17 03:45:13;;;;;;;9.38;8.02;;;9.30;99.90;;;;;;5053310;28;20218;-67
2023/10/17 03:47:46;;;;;;;9.35;7.78;;;9.30;99.90;;;;;;5053275;28;20261;-67
2023/10/17 03:50:14;;;;;;;10.07;7.90;;;9.30;99.90;;;;;;5053060;28;20659;-67
2023/10/17 03:52:40;;;;;;;13.00;7.60;;;9.30;99.90;;;;;;5051663;28;20184;-64
2023/10/17 03:55:10;;;;;;;11.20;7.97;;;9.30;99.90;;;;;;5053128;28;20179;-66
2023/10/17 03:57:52;;;;;;;12.23;7.60;;;9.30;99.90;;;;;;5053133;28;20331;-67
2023/10/17 04:00:44;;;;;;;9.35;7.60;;;9.40;99.90;;;;;;5053209;28;20175;-66
2023/10/17 04:03:10;;;;;;;10.63;8.35;;;9.40;99.90;;;;;;5052631;28;20179;-67
2023/10/17 04:05:35;;;;;;;11.57;7.20;;;9.40;99.90;;;;;;5052963;28;20260;-67
2023/10/17 04:08:01;;;;;;;8.77;7.18;;;9.30;99.90;;;;;;5052700;28;20207;-67
2023/10/17 04:10:39;;;;;;;10.55;7.38;;;9.40;99.90;;;;;;5052982;28;20182;-67
2023/10/17 04:13:18;;;;;;;9.05;7.35;;;9.30;99.90;;;;;;5052860;28;20175;-67
2023/10/17 04:15:44;;;;;;;9.63;6.80;;;9.30;99.90;;;;;;5052732;28;20222;-67
2023/10/17 04:18:11;;;;;;;8.38;7.55;;;9.30;99.90;;;;;;5052851;28;20253;-67
2023/10/17 04:20:38;;;;;;;8.73;6.47;;;9.30;99.90;;;;;;5052523;28;20711;-67
2023/10/17 04:23:05;;;;;;;9.25;7.18;;;9.20;99.90;;;;;;5052718;28;20178;-63
2023/10/17 04:25:34;;;;;;;11.00;6.55;;;9.30;99.90;;;;;;5052354;28;20187;-65
2023/10/17 04:28:01;;;;;;;8.45;7.55;;;9.20;99.90;;;;;;5051929;28;20218;-64
2023/10/17 04:30:35;;;;;;;10.82;7.43;;;9.30;99.90;;;;;;5051196;28;20513;-65
2023/10/17 04:33:09;;;;;;;8.68;7.70;;;9.30;99.90;;;;;;5054570;28;20179;-65
2023/10/17 04:35:36;;;;;;;9.98;6.65;;;9.40;99.90;;;;;;5056456;28;20654;-65
2023/10/17 04:43:45;;;;;;;9.57;6.18;;;9.30;99.90;;;;;;5056436;28;20190;-64
2023/10/17 04:46:11;;;;;;;10.85;7.28;;;9.30;99.90;;;;;;5056098;28;20227;-65
2023/10/17 04:48:40;;;;;;;7.30;5.65;;;9.20;99.90;;;;;;5056183;28;20202;-65
2023/10/17 04:51:31;;;;;;;8.02;6.00;;;9.20;99.90;;;;;;5055965;28;20201;-64
2023/10/17 04:53:55;;;;;;;8.40;6.63;;;9.30;99.90;;;;;;5055561;28;20194;-64
2023/10/17 04:56:24;;;;;;;8.80;5.65;;;9.30;99.90;;;;;;5053084;28;20660;-63
2023/10/17 04:58:56;;;;;;;8.13;6.05;;;9.20;99.90;;;;;;5055079;28;20179;-65
2023/10/17 05:04:51;;;;;;;7.22;6.38;;;9.30;99.90;;;;;;5033646;28;20179;-62
2023/10/17 05:07:21;;;;;;;8.55;7.47;;;9.20;99.90;;;;;;5054933;28;20219;-61
2023/10/17 06:18:32;;;;;;;8.43;7.65;;;9.10;99.90;;;;;;5054683;28;20193;-61
2023/10/17 06:32:16;;;;;;;8.70;5.38;;;9.20;99.90;;;;;;5052721;28;20191;-61
2023/10/17 06:34:44;;;;;;;7.47;5.70;;;9.10;99.90;;;;;;5054173;28;20250;-61
2023/10/17 06:37:11;;;;;;;8.10;5.93;;;9.10;99.90;;;;;;5053962;28;20185;-61
2023/10/17 06:39:46;;;;;;;9.85;5.78;;;9.10;99.90;;;;;;5053890;28;20167;-61
2023/10/17 06:42:16;;;;;;;8.25;5.53;;;9.10;99.90;;;;;;5054083;28;20359;-62
2023/10/17 06:44:53;;;;;;;8.75;5.63;;;9.10;99.90;;;;;;5053978;28;20628;-61
2023/10/17 06:47:30;;;;;;;6.43;5.72;;;9.20;99.90;;;;;;5053818;28;20702;-65
2023/10/17 06:55:29;;;;;;;13.30;10.95;;;9.10;99.90;;;;;;5053135;28;20232;-61
2023/10/17 06:57:57;;;;;;;12.23;8.50;;;9.10;99.90;;;;;;5053785;28;20206;-61
2023/10/17 07:03:07;;;;;;;9.18;7.18;;;9.00;99.90;;;;;;5053903;28;20187;-61
2023/10/17 07:05:35;;;;;;;7.78;6.90;;;9.10;99.90;;;;;;5053638;28;20175;-62
2023/10/17 07:08:01;;;;;;;10.00;6.50;;;9.10;99.90;;;;;;5052333;28;20207;-61
2023/10/17 07:13:32;;;;;;;9.27;5.90;;;9.10;99.90;;;;;;5053399;28;20187;-62
2023/10/17 07:16:04;;;;;;;9.02;5.88;;;9.00;99.90;;;;;;5053800;28;20625;-62
2023/10/17 07:18:44;;;;;;;7.45;5.95;;;9.10;99.90;;;;;;5053396;28;20241;-62
2023/10/17 07:23:41;;;;;;;6.38;5.68;;;9.10;99.90;;;;;;5053499;28;20655;-62
2023/10/17 07:26:11;;;;;;;9.32;5.78;;;9.20;99.90;;;;;;5053328;28;20202;-61
2023/10/17 07:28:42;;;;;;;8.82;5.90;;;9.20;99.90;;;;;;5053279;28;20194;-62
2023/10/17 07:31:11;;;;;;;8.70;5.60;;;9.20;99.90;;;;;;5053313;28;20601;-62
2023/10/17 07:36:32;;;;;;;14.55;13.15;;;9.40;99.90;;;;;;5053390;28;20183;-63
2023/10/17 07:38:57;;;;;;;10.00;9.00;;;9.20;99.90;;;;;;5053221;28;20171;-62
2023/10/17 07:41:38;;;;;;;7.05;5.90;;;9.30;99.90;;;;;;5053065;28;20174;-62
2023/10/17 07:44:19;;;;;;;10.20;5.10;;;9.40;99.90;;;;;;5053004;28;20173;-61
2023/10/17 07:47:33;;;;;;;7.00;5.40;;;9.40;99.90;;;;;;5053152;28;20214;-62
2023/10/17 07:49:49;;;;;;;8.20;5.32;;;9.30;99.90;;;;;;5052815;28;20226;-62
2023/10/17 07:52:17;;;;;;;8.85;5.68;;;9.40;99.90;;;;;;5052957;28;20206;-64
2023/10/17 07:54:58;;;;;;;7.15;5.47;;;9.50;99.90;;;;;;5053152;28;20179;-62
2023/10/17 07:57:40;;;;;;;6.18;5.30;;;9.40;99.90;;;;;;5053104;28;20182;-61
2023/10/17 08:00:26;;;;;;;6.30;4.95;;;9.40;99.90;;;;;;5052993;28;20690;-61
2023/10/17 08:02:55;;;;;;;8.10;7.30;;;9.50;99.90;;;;;;5052854;28;20210;-61
2023/10/17 08:05:23;;;;;;;7.22;4.38;;;9.60;99.90;;;;;;5053415;28;20565;-61
2023/10/17 08:07:49;;;;;;;7.80;5.30;;;9.60;99.90;;;;;;5056809;28;20234;-61
2023/10/17 08:10:29;;;;;;;7.00;5.95;;;9.50;99.90;;;;;;5056942;28;20254;-62
2023/10/17 08:12:57;;;;;;;6.03;5.10;;;9.50;99.90;;;;;;5056814;28;20175;-62
2023/10/17 08:15:30;;;;;;;6.00;5.05;;;9.60;99.90;;;;;;5056536;28;20191;-61
2023/10/17 08:17:58;;;;;;;9.68;5.35;;;9.70;99.90;;;;;;5056979;28;20179;-61
2023/10/17 08:23:09;;;;;;;7.38;5.20;;;9.70;99.90;;;;;;5056535;28;20194;-61
2023/10/17 08:25:52;;;;;;;7.13;4.68;;;9.70;99.90;;;;;;5056493;28;20187;-62
2023/10/17 08:28:34;;;;;;;6.25;5.18;;;9.60;99.90;;;;;;5056577;28;20684;-62
2023/10/17 08:36:47;;;;;;;7.38;5.45;;;9.60;99.90;;;;;;5056348;28;20241;-62
2023/10/17 08:41:57;;;;;;;9.30;4.97;;;9.70;99.90;;;;;;5056341;28;20233;-61
2023/10/17 08:44:46;;;;;;;5.53;4.60;;;9.80;99.90;;;;;;5056204;28;20274;-62
2023/10/17 08:47:16;;;;;;;9.73;5.40;;;9.80;99.90;;;;;;5056296;28;20202;-62
2023/10/17 08:49:44;;;;;;;6.50;4.75;;;9.80;99.90;;;;;;5056319;28;20267;-62
2023/10/17 08:52:24;;;;;;;6.00;4.85;;;9.80;99.90;;;;;;5056025;28;20531;-62
2023/10/17 08:54:51;;;;;;;6.60;4.95;;;9.80;99.90;;;;;;5055940;28;20550;-62
2023/10/17 08:57:17;;;;;;;8.10;5.03;;;9.80;99.90;;;;;;5055795;28;20182;-62
2023/10/17 09:05:00;;;;;;;7.05;4.80;;;9.80;99.90;;;;;;5055944;28;20632;-62
2023/10/17 09:07:33;;;;;;;7.50;4.43;;;10.10;99.90;;;;;;5055728;28;20203;-62
2023/10/17 09:10:04;;;;;;;6.45;4.05;;;10.10;99.90;;;;;;5055970;28;20190;-62
2023/10/17 09:12:42;;;;;;;6.72;4.50;;;10.20;99.90;;;;;;5055869;28;20613;-61
2023/10/17 09:15:30;;;;;;;5.72;4.43;;;10.30;99.90;;;;;;5055832;28;20666;-62
2023/10/17 09:18:06;;;;;;;5.18;4.22;;;10.40;99.90;;;;;;5054784;28;20206;-62
2023/10/17 09:20:36;;;;;;;3.92;3.40;;;10.60;99.90;;;;;;5055688;28;20223;-62
2023/10/17 09:23:02;;;;;;;6.50;4.00;;;10.50;99.90;;;;;;5055623;28;20168;-62
2023/10/17 09:25:30;;;;;;;7.28;4.18;;;10.60;99.90;;;;;;5055449;28;20174;-62
2023/10/17 09:27:59;;;;;;;6.38;3.95;;;10.70;99.90;;;;;;5055447;28;20211;-62
2023/10/17 09:30:26;;;;;;;5.78;3.83;;;10.90;99.90;;;;;;5055312;28;20179;-61
2023/10/17 09:32:52;;;;;;;5.28;3.78;;;11.00;99.90;;;;;;5055105;28;20266;-62
2023/10/17 09:35:18;;;;;;;6.65;3.95;;;11.00;99.90;;;;;;5055468;28;20269;-62
2023/10/17 09:37:51;;;;;;;3.92;3.53;;;11.00;99.90;;;;;;5055219;28;20179;-62
2023/10/17 09:40:29;;;;;;;4.55;3.70;;;11.10;99.90;;;;;;5055236;28;20167;-62
2023/10/17 09:42:56;;;;;;;4.25;3.35;;;11.30;99.90;;;;;;5055111;28;20269;-62
2023/10/17 09:45:22;;;;;;;6.22;3.47;;;11.30;99.90;;;;;;5055243;28;20183;-62
2023/10/17 09:47:53;;;;;;;6.85;3.67;;;11.30;99.90;;;;;;5055067;28;20199;-61
2023/10/17 09:50:21;;;;;;;4.10;3.25;;;11.30;99.90;;;;;;5054969;28;20179;-62
2023/10/17 09:52:54;;;;;;;4.53;3.22;;;11.40;99.90;;;;;;5055031;28;20182;-62
2023/10/17 09:55:23;;;;;;;4.05;3.20;;;11.50;99.90;;;;;;5054961;28;20180;-62
2023/10/17 09:58:00;;;;;;;5.93;3.58;;;11.40;99.90;;;;;;5054795;28;20183;-62
2023/10/17 10:00:55;;;;;;;3.97;3.10;;;11.50;99.90;;;;;;5054972;28;20177;-62
2023/10/17 10:03:24;;;;;;;6.57;3.60;;;11.50;99.90;;;;;;5054581;28;20195;-62
2023/10/17 10:05:53;;;;;;;4.88;3.10;;;11.40;99.90;;;;;;5054636;28;20254;-62
2023/10/17 10:08:33;;;;;;;5.38;3.40;;;11.60;99.90;;;;;;5054367;28;20286;-62
2023/10/17 10:11:00;;;;;;;3.85;2.72;;;11.60;99.90;;;;;;5054754;28;20171;-62
2023/10/17 10:13:26;;;;;;;5.88;3.10;;;11.70;99.90;;;;;;5054575;28;20179;-62
2023/10/17 10:15:54;;;;;;;4.63;3.33;;;11.60;99.90;;;;;;5054566;28;20700;-61
2023/10/17 10:18:35;;;;;;;4.45;3.08;;;11.70;99.90;;;;;;5054397;28;20179;-62
2023/10/17 10:21:13;;;;;;;4.22;2.90;;;11.80;99.90;;;;;;5054368;28;20284;-62
2023/10/17 10:23:40;;;;;;;6.72;3.40;;;11.80;99.90;;;;;;5054671;28;20620;-62
2023/10/17 10:26:11;;;;;;;6.07;3.00;;;11.70;99.90;;;;;;5054287;28;20167;-62
2023/10/17 10:28:38;;;;;;;3.67;2.95;;;11.90;99.90;;;;;;5053515;28;20540;-62
2023/10/17 10:31:33;;;;;;;4.55;3.22;;;11.90;99.90;;;;;;5053627;28;20254;-62
2023/10/17 10:33:59;;;;;;;4.82;2.92;;;12.00;99.90;;;;;;5045459;28;20191;-62
2023/10/17 10:36:26;;;;;;;3.15;2.88;;;12.00;99.90;;;;;;5054132;28;20190;-62
2023/10/17 10:38:54;;;;;;;3.97;3.17;;;12.10;99.90;;;;;;5054077;28;20523;-61
2023/10/17 10:41:22;;;;;;;3.67;3.33;;;12.10;99.90;;;;;;5053929;28;20167;-62
2023/10/17 10:43:48;;;;;;;5.30;3.30;;;12.20;99.90;;;;;;5054210;28;20171;-62
2023/10/17 10:46:15;;;;;;;5.47;2.95;;;12.30;99.90;;;;;;5053897;28;20167;-62
2023/10/17 10:48:48;;;;;;;4.55;2.97;;;12.40;99.90;;;;;;5053947;28;20182;-61
2023/10/17 10:51:17;;;;;;;3.85;2.90;;;12.30;99.90;;;;;;5053745;28;20191;-63
2023/10/17 10:53:54;;;;;;;4.15;2.78;;;12.30;99.90;;;;;;5053762;28;20221;-62
2023/10/17 10:56:22;;;;;;;5.07;2.30;;;12.30;99.90;;;;;;5053679;28;20766;-62
2023/10/17 10:58:53;;;;;;;3.35;2.40;;;12.40;99.90;;;;;;5053758;28;20185;-63
2023/10/17 11:01:20;;;;;;;4.72;2.72;;;12.50;99.90;;;;;;5053987;28;20179;-62
2023/10/17 11:03:47;;;;;;;3.80;2.50;;;12.70;99.90;;;;;;5053581;28;20180;-63
2023/10/17 11:06:14;;;;;;;3.35;2.17;;;12.60;99.90;;;;;;5053514;28;20182;-62
2023/10/17 11:08:47;;;;;;;5.20;2.00;;;12.70;99.90;;;;;;5053392;28;20556;-61
2023/10/17 11:11:19;;;;;;;3.30;1.80;;;12.80;99.90;;;;;;5053388;28;20663;-63
2023/10/17 11:13:50;;;;;;;3.83;1.77;;;12.80;99.90;;;;;;5053506;28;20184;-62
2023/10/17 11:16:17;;;;;;;3.38;1.80;;;13.00;99.90;;;;;;5053619;28;20648;-61
2023/10/17 11:18:43;;;;;;;1.95;1.70;;;12.90;99.90;;;;;;5053455;28;20610;-62
2023/10/17 11:21:10;;;;;;;3.03;2.00;;;12.90;99.90;;;;;;5053502;28;20305;-62
2023/10/17 11:23:46;;;;;;;2.58;1.55;;;12.70;99.90;;;;;;5053483;28;20171;-63
2023/10/17 11:26:12;;;;;;;3.95;1.80;;;12.80;99.90;;;;;;5053442;28;20167;-62
2023/10/17 11:28:42;;;;;;;3.25;1.90;;;12.80;99.90;;;;;;5053298;28;20249;-63
2023/10/17 11:31:45;;;;;;;3.50;1.63;;;12.70;99.90;;;;;;5053216;28;20178;-62
2023/10/17 11:34:14;;;;;;;2.78;1.90;;;12.80;99.90;;;;;;5052987;28;20223;-62
2023/10/17 11:37:02;;;;;;;3.30;1.98;;;12.80;99.90;;;;;;5053282;28;20206;-61
2023/10/17 11:39:41;;;;;;;4.35;2.30;;;12.90;99.90;;;;;;5053136;28;20246;-62
2023/10/17 11:42:06;;;;;;;2.20;1.90;;;13.00;99.90;;;;;;5052912;28;20175;-63
2023/10/17 11:44:39;;;;;;;2.78;1.80;;;12.90;99.90;;;;;;5053163;28;20179;-62
2023/10/17 11:47:20;;;;;;;3.22;1.98;;;12.80;99.90;;;;;;5053080;28;20203;-62
2023/10/17 11:49:49;;;;;;;3.75;1.70;;;12.80;99.90;;;;;;5053007;28;20183;-63
2023/10/17 11:52:15;;;;;;;1.98;1.70;;;12.90;99.90;;;;;;5052745;28;20186;-63
2023/10/17 11:55:04;;;;;;;2.45;1.60;;;12.80;99.90;;;;;;5052904;28;20171;-62
2023/10/17 11:57:31;;;;;;;2.80;1.58;;;12.90;99.90;;;;;;5052875;28;20195;-62
2023/10/17 11:59:57;;;;;;;2.45;1.70;;;12.90;99.90;;;;;;5052878;28;20532;-62
2023/10/17 12:02:23;;;;;;;2.42;2.22;;;13.00;99.90;;;;;;5052685;28;20178;-62
2023/10/17 12:04:48;;;;;;;5.30;1.98;;;13.10;99.90;;;;;;5052744;28;20252;-63
2023/10/17 12:07:15;;;;;;;3.03;1.65;;;13.20;99.90;;;;;;5052848;28;20651;-63
2023/10/17 12:09:41;;;;;;;2.40;1.45;;;13.30;99.90;;;;;;5052793;28;20187;-63
2023/10/17 12:12:06;;;;;;;3.28;1.67;;;13.30;99.90;;;;;;5052606;28;20182;-63
2023/10/17 12:14:35;;;;;;;2.63;1.70;;;13.20;99.90;;;;;;5052770;28;20180;-63
2023/10/17 12:17:00;;;;;;;2.78;1.70;;;13.30;99.90;;;;;;5052547;28;20244;-63
2023/10/17 12:19:27;;;;;;;2.83;1.50;;;13.30;99.90;;;;;;5051146;28;20179;-63
2023/10/17 12:22:00;;;;;;;2.50;1.70;;;13.30;99.90;;;;;;5053130;28;20199;-62
2023/10/17 12:24:29;;;;;;;2.85;1.50;;;13.30;99.90;;;;;;5052818;28;20175;-62
2023/10/17 12:26:57;;;;;;;3.47;1.70;;;13.30;99.90;;;;;;5052507;28;20211;-62
2023/10/17 12:29:25;;;;;;;4.30;1.83;;;13.30;99.90;;;;;;5052614;28;20268;-63
2023/10/17 12:31:55;;;;;;;1.98;1.42;;;13.40;99.90;;;;;;5052529;28;20241;-62
2023/10/17 12:34:20;;;;;;;2.47;1.40;;;13.40;99.90;;;;;;5052806;28;20172;-63
2023/10/17 12:36:47;;;;;;;4.45;1.80;;;13.50;99.90;;;;;;5052604;28;20270;-63
2023/10/17 12:39:16;;;;;;;3.35;2.00;;;13.40;99.90;;;;;;5052459;28;20179;-63
2023/10/17 12:41:43;;;;;;;3.03;1.50;;;13.30;99.90;;;;;;5052480;28;20168;-62
2023/10/17 12:44:09;;;;;;;3.00;1.70;;;13.40;99.90;;;;;;5052355;28;20179;-63
2023/10/17 12:46:35;;;;;;;2.25;1.60;;;13.50;99.90;;;;;;5052392;28;20529;-63
2023/10/17 12:49:01;;;;;;;2.60;1.55;;;13.50;99.90;;;;;;5052502;28;20180;-62
2023/10/17 12:51:27;;;;;;;3.55;1.48;;;13.60;99.90;;;;;;5052515;28;20648;-63
2023/10/17 12:53:54;;;;;;;3.45;1.90;;;13.50;99.90;;;;;;5055302;28;20167;-63
2023/10/17 12:56:20;;;;;;;2.05;1.63;;;13.40;99.90;;;;;;5055848;28;20572;-62
2023/10/17 12:58:46;;;;;;;3.08;1.40;;;13.30;99.90;;;;;;5055894;28;20168;-63
2023/10/17 13:01:12;;;;;;;2.30;1.40;;;13.40;99.90;;;;;;5055644;28;20698;-63
2023/10/17 13:03:38;;;;;;;2.60;1.40;;;13.40;99.90;;;;;;5055972;28;20171;-63
2023/10/17 13:06:09;;;;;;;3.05;1.60;;;13.30;99.90;;;;;;5055745;28;20175;-63
2023/10/17 13:08:35;;;;;;;3.33;1.60;;;13.50;99.90;;;;;;5055708;28;20262;-63
2023/10/17 13:11:04;;;;;;;1.73;1.20;;;13.50;99.90;;;;;;5055595;28;20179;-63
2023/10/17 13:13:30;;;;;;;4.55;1.80;;;13.60;99.90;;;;;;5055489;28;20186;-63
2023/10/17 13:15:57;;;;;;;2.42;1.48;;;13.60;99.90;;;;;;5055391;28;20175;-63
2023/10/17 13:18:30;;;;;;;2.25;1.60;;;13.50;99.90;;;;;;5055491;28;20187;-63
2023/10/17 13:21:02;;;;;;;2.95;1.48;;;13.40;99.90;;;;;;5053975;28;20223;-63
2023/10/17 13:23:28;;;;;;;2.20;1.20;;;13.50;99.90;;;;;;5055398;28;20175;-63
2023/10/17 13:25:54;;;;;;;2.95;1.40;;;13.50;99.90;;;;;;5055347;28;20201;-63
2023/10/17 13:28:20;;;;;;;2.15;1.45;;;13.40;99.90;;;;;;5054981;28;20242;-63
2023/10/17 13:30:45;;;;;;;1.98;1.40;;;13.40;99.90;;;;;;5055362;28;20183;-63
2023/10/17 13:33:11;;;;;;;2.70;1.30;;;13.40;99.90;;;;;;5055272;28;20323;-63
2023/10/17 13:35:40;;;;;;;2.65;1.50;;;13.50;99.90;;;;;;5055104;28;20521;-63
2023/10/17 13:38:06;;;;;;;1.80;1.70;;;13.40;99.90;;;;;;5055163;28;20186;-63
2023/10/17 13:40:32;;;;;;;2.63;1.90;;;13.30;99.90;;;;;;5054983;28;20167;-63
2023/10/17 13:43:00;;;;;;;4.90;1.80;;;13.40;99.90;;;;;;5054933;28;20596;-63
2023/10/17 13:45:27;;;;;;;5.28;1.50;;;13.20;99.90;;;;;;5055331;28;20237;-63
2023/10/17 13:47:53;;;;;;;2.88;1.70;;;13.20;99.90;;;;;;5054981;28;20211;-63
2023/10/17 13:50:19;;;;;;;2.78;1.45;;;13.20;99.90;;;;;;5055185;28;20175;-63
2023/10/17 13:52:49;;;;;;;2.22;1.50;;;13.30;99.90;;;;;;5054967;28;20225;-63
2023/10/17 13:55:27;;;;;;;5.60;1.60;;;13.30;99.90;;;;;;5054847;28;20645;-63
2023/10/17 13:57:55;;;;;;;2.13;1.20;;;13.20;99.90;;;;;;5055229;28;20591;-63
2023/10/17 14:00:22;;;;;;;2.08;1.20;;;13.30;99.90;;;;;;5053718;28;20179;-63
2023/10/17 14:02:51;;;;;;;2.85;1.50;;;13.40;99.90;;;;;;5054691;28;20171;-63
2023/10/17 14:05:18;;;;;;;1.45;1.35;;;13.40;99.90;;;;;;5054511;28;20514;-63
2023/10/17 14:07:44;;;;;;;3.75;1.25;;;13.40;99.90;;;;;;5054650;28;20199;-63
2023/10/17 14:10:11;;;;;;;1.77;1.45;;;13.30;99.90;;;;;;5054465;28;20584;-64
2023/10/17 14:12:41;;;;;;;1.45;1.15;;;13.30;99.90;;;;;;5054715;28;20179;-63
2023/10/17 14:15:08;;;;;;;2.08;1.20;;;13.30;99.90;;;;;;5054797;28;20633;-63
2023/10/17 14:17:34;;;;;;;2.30;1.00;;;13.40;99.90;;;;;;5054628;28;20178;-63
2023/10/17 14:20:14;;;;;;;1.20;1.10;;;13.40;99.90;;;;;;5054537;28;20275;-64
2023/10/17 14:23:16;;;;;;;3.25;1.33;;;13.40;99.90;;;;;;5054276;28;20624;-64
2023/10/17 14:28:21;;;;;;;2.67;1.20;;;13.30;99.90;;;;;;5054190;28;20217;-63
2023/10/17 14:30:49;;;;;;;5.32;2.20;;;13.30;99.90;;;;;;5054176;28;20175;-63
2023/10/17 14:33:15;;;;;;;3.33;1.25;;;13.20;99.90;;;;;;5054081;28;20182;-64
2023/10/17 14:35:43;;;;;;;1.33;1.00;;;13.20;99.90;;;;;;5054233;28;20176;-62
2023/10/17 14:38:10;;;;;;;2.65;1.17;;;13.20;99.90;;;;;;5054201;28;20179;-64
2023/10/17 14:40:36;;;;;;;4.13;1.20;;;13.30;99.90;;;;;;5054238;28;20255;-63
2023/10/17 14:43:02;;;;;;;3.08;1.27;;;13.20;99.90;;;;;;5053988;28;20314;-64
2023/10/17 14:45:28;;;;;;;3.10;1.17;;;13.20;99.90;;;;;;5053811;28;20183;-62
2023/10/17 14:47:55;;;;;;;2.03;1.30;;;13.20;99.90;;;;;;5053987;28;20214;-63
2023/10/17 14:50:21;;;;;;;2.97;1.30;;;13.10;99.90;;;;;;5053890;28;20175;-63
2023/10/17 14:52:47;;;;;;;1.70;1.00;;;13.20;99.90;;;;;;5053870;28;20172;-63
2023/10/17 14:55:23;;;;;;;5.30;1.20;;;13.10;99.90;;;;;;5053873;28;20178;-64
2023/10/17 14:57:49;;;;;;;1.95;1.20;;;13.20;99.90;;;;;;5053758;28;20270;-63
2023/10/17 15:00:15;;;;;;;2.13;1.20;;;13.20;99.90;;;;;;5053451;28;20709;-66
2023/10/17 15:02:44;;;;;;;3.13;1.20;;;13.20;99.90;;;;;;5053979;28;20223;-64
2023/10/17 15:05:12;;;;;;;2.95;1.10;;;13.20;99.90;;;;;;5053769;28;20178;-63
2023/10/17 15:07:39;;;;;;;2.75;1.20;;;13.20;99.90;;;;;;5053438;28;20230;-63
2023/10/17 15:10:12;;;;;;;3.00;1.42;;;13.20;99.90;;;;;;5053752;28;20179;-63
2023/10/17 15:12:41;;;;;;;2.22;1.15;;;13.20;99.90;;;;;;5053386;28;20171;-63
2023/10/17 15:15:10;;;;;;;2.58;1.60;;;13.20;99.90;;;;;;5052963;28;20179;-64
2023/10/17 15:17:43;;;;;;;2.15;1.17;;;13.20;99.90;;;;;;5053781;28;20175;-63
2023/10/17 15:20:13;;;;;;;2.70;1.30;;;13.10;99.90;;;;;;5053192;28;20618;-63